Time;durP1;ratioP1;P1;durP2;ratioP2;P2;SDS_P1;SDS_P2;PMS_P1;PMS_P2;Temp;Humidity;BMP_temperature;BMP_pressure;BME280_temperature;BME280_humidity;BME280_pressure;Samples;Min_cycle;Max_cycle;Signal;HPM_P1;HPM_P2
2022/06/13 00:02:46;;;;;;;8.70;7.12;;;;;;;17.24;74.33;100119.19;2161002;81;21018;-72
2022/06/13 00:05:47;;;;;;;8.15;6.58;;;;;;;17.17;75.46;100110.33;2163263;81;21563;-72
2022/06/13 00:08:49;;;;;;;7.12;5.83;;;;;;;17.13;75.59;100112.61;2164856;81;21001;-72
2022/06/13 00:11:50;;;;;;;6.00;5.40;;;;;;;17.10;75.10;100100.16;2160937;81;20951;-73
2022/06/13 00:14:52;;;;;;;10.82;6.45;;;;;;;17.08;74.80;100082.92;2163114;81;21037;-72
2022/06/13 00:17:53;;;;;;;12.25;6.92;;;;;;;17.07;75.06;100073.25;2158252;81;21028;-72
2022/06/13 00:20:55;;;;;;;11.57;6.67;;;;;;;17.03;75.00;100074.19;2165507;81;21027;-73
2022/06/13 00:23:57;;;;;;;7.67;5.95;;;;;;;17.04;74.88;100084.39;2159246;81;21049;-72
2022/06/13 00:26:58;;;;;;;9.18;6.33;;;;;;;17.10;74.76;100113.56;2159084;81;21141;-73
2022/06/13 00:29:59;;;;;;;7.42;6.20;;;;;;;17.12;74.61;100120.36;2159043;81;20966;-73
2022/06/13 00:33:00;;;;;;;13.68;6.80;;;;;;;17.16;74.68;100126.12;2154121;81;20941;-73
2022/06/13 00:36:02;;;;;;;7.83;6.53;;;;;;;17.17;74.61;100124.55;2164723;81;21045;-73
2022/06/13 00:39:04;;;;;;;8.88;6.75;;;;;;;17.15;74.70;100113.23;2165668;81;21050;-73
2022/06/13 00:42:06;;;;;;;11.10;7.20;;;;;;;17.19;74.72;100117.13;2163701;81;21024;-73
2022/06/13 00:45:21;;;;;;;8.70;6.90;;;;;;;17.23;74.98;100132.27;2159686;81;21041;-73
2022/06/13 00:48:27;;;;;;;6.60;5.92;;;;;;;17.24;74.80;100116.52;2165122;81;21043;-72
2022/06/13 00:51:31;;;;;;;10.05;6.33;;;;;;;17.18;74.82;100102.61;2164662;81;22201;-73
2022/06/13 00:54:35;;;;;;;8.05;6.17;;;;;;;17.15;74.81;100104.38;2164347;81;21113;-73
2022/06/13 00:57:36;;;;;;;6.75;6.08;;;;;;;17.16;74.79;100102.81;2160081;81;20959;-73
2022/06/13 01:00:39;;;;;;;6.50;5.45;;;;;;;17.17;74.74;100086.20;2164727;81;21080;-72
2022/06/13 01:03:43;;;;;;;8.05;5.15;;;;;;;17.15;74.62;100078.38;2130148;81;20982;-73
2022/06/13 01:06:48;;;;;;;8.10;5.90;;;;;;;17.14;74.73;100051.77;2157165;81;21511;-72
2022/06/13 01:13:12;;;;;;;6.40;4.80;;;;;;;17.09;75.09;100016.23;2161088;81;21570;-72
2022/06/13 01:16:44;;;;;;;8.28;4.75;;;;;;;17.11;74.79;100038.80;2158104;81;21045;-73
2022/06/13 01:20:16;;;;;;;5.37;4.65;;;;;;;17.13;74.60;100043.44;2165655;81;21017;-73
2022/06/13 01:23:44;;;;;;;5.35;4.85;;;;;;;17.12;74.43;100029.21;2172316;81;21572;-73
2022/06/13 01:27:09;;;;;;;8.33;5.70;;;;;;;17.02;74.55;100017.58;2125934;82;20943;-73
2022/06/13 01:30:53;;;;;;;10.53;6.10;;;;;;;17.02;74.61;100032.84;2131306;82;21007;-73
2022/06/13 01:34:18;;;;;;;6.30;5.70;;;;;;;17.00;74.74;100030.87;2170848;81;21005;-73
2022/06/13 01:37:33;;;;;;;8.60;5.53;;;;;;;16.99;74.76;100024.70;2167482;81;20957;-74
2022/06/13 01:40:52;;;;;;;7.45;6.05;;;;;;;16.99;74.80;100022.02;2173017;81;21017;-73
2022/06/13 01:44:14;;;;;;;7.17;5.60;;;;;;;17.00;74.81;100016.14;2173909;81;21081;-73
2022/06/13 01:47:30;;;;;;;6.85;5.30;;;;;;;16.98;74.75;100012.34;2140358;81;21617;-73
2022/06/13 01:50:49;;;;;;;7.62;5.53;;;;;;;16.82;74.64;100014.14;2173014;81;21555;-73
2022/06/13 01:53:55;;;;;;;6.83;5.95;;;;;;;16.77;75.89;100021.98;2171142;81;21034;-72
2022/06/13 01:57:11;;;;;;;6.03;5.42;;;;;;;16.69;75.60;100018.97;2168155;81;20976;-72
2022/06/13 02:00:24;;;;;;;7.95;5.90;;;;;;;16.66;75.46;100017.23;2139876;81;21014;-73
2022/06/13 02:03:43;;;;;;;8.33;6.22;;;;;;;16.57;75.65;100017.97;2169507;81;21059;-73
2022/06/13 02:07:07;;;;;;;6.05;5.55;;;;;;;16.50;75.69;100014.46;2168086;81;20978;-72
2022/06/13 02:10:17;;;;;;;6.72;5.67;;;;;;;16.45;75.68;100004.91;2166653;81;21465;-73
2022/06/13 02:13:27;;;;;;;6.53;5.30;;;;;;;16.41;75.62;99993.77;2166670;81;20958;-73
2022/06/13 02:16:39;;;;;;;5.55;5.05;;;;;;;16.38;75.75;99997.39;2163990;81;21084;-73
2022/06/13 02:19:50;;;;;;;6.40;5.10;;;;;;;16.39;75.55;99999.88;2153797;81;21081;-73
2022/06/13 02:23:00;;;;;;;5.15;4.65;;;;;;;16.39;75.56;99988.31;2155269;81;21349;-73
2022/06/13 02:26:09;;;;;;;5.03;4.53;;;;;;;16.35;75.41;99991.41;2153750;81;21072;-73
2022/06/13 02:29:21;;;;;;;6.12;5.17;;;;;;;16.37;75.58;99999.25;2149336;81;21789;-73
2022/06/13 02:32:45;;;;;;;7.60;4.92;;;;;;;16.38;75.39;100000.88;2153978;81;20983;-72
2022/06/13 02:35:56;;;;;;;6.22;4.75;;;;;;;16.42;75.43;100003.47;2152786;81;21061;-73
2022/06/13 02:39:03;;;;;;;;;;;;;;;16.42;75.33;100002.66;2156522;80;20994;-72
2022/06/13 02:42:13;;;;;;;7.58;4.75;;;;;;;16.38;75.34;99998.20;2144997;82;20173;-74
2022/06/13 02:45:23;;;;;;;11.73;4.62;;;;;;;16.36;75.34;99997.09;2145355;81;21045;-72
2022/06/13 02:48:41;;;;;;;5.40;4.90;;;;;;;16.35;75.39;99995.95;2155801;81;21030;-71
2022/06/13 02:52:04;;;;;;;5.67;5.17;;;;;;;16.35;75.37;99991.93;2145759;82;21074;-72
2022/06/13 02:55:09;;;;;;;6.87;5.55;;;;;;;16.38;75.46;99992.85;2138859;81;20979;-72
2022/06/13 02:58:33;;;;;;;7.03;5.85;;;;;;;16.41;75.44;99983.58;2155620;81;21037;-72
2022/06/13 03:01:41;;;;;;;8.03;5.35;;;;;;;16.43;75.42;99988.22;2152277;81;20964;-72
2022/06/13 03:04:50;;;;;;;7.83;5.67;;;;;;;16.45;75.57;99991.00;2150815;81;21500;-72
2022/06/13 03:08:03;;;;;;;10.45;5.85;;;;;;;16.43;75.62;99983.69;2153115;81;20983;-72
2022/06/13 03:11:49;;;;;;;8.28;5.15;;;;;;;16.45;75.73;99982.97;2151528;81;21001;-72
2022/06/13 03:14:58;;;;;;;7.53;5.08;;;;;;;16.45;75.66;99981.62;2148142;81;22576;-72
2022/06/13 03:18:08;;;;;;;10.50;6.08;;;;;;;16.46;75.83;99991.30;2155761;81;21057;-72
2022/06/13 03:21:32;;;;;;;10.03;4.80;;;;;;;16.45;75.91;100012.42;2160136;81;21080;-72
2022/06/13 03:24:44;;;;;;;6.37;4.75;;;;;;;16.41;76.04;100042.49;2172331;80;21061;-73
2022/06/13 03:28:08;;;;;;;7.15;5.12;;;;;;;16.31;75.87;100023.66;2174070;80;21093;-72
2022/06/13 03:31:14;;;;;;;7.67;4.97;;;;;;;16.29;75.88;100038.27;2165308;81;21025;-72
2022/06/13 03:34:21;;;;;;;9.83;5.90;;;;;;;16.25;75.99;100032.52;2172489;80;21584;-72
2022/06/13 03:37:33;;;;;;;7.53;5.90;;;;;;;16.25;76.14;100041.07;2177424;80;20982;-73
2022/06/13 03:40:39;;;;;;;8.58;6.03;;;;;;;16.29;76.23;100042.30;2173914;80;21061;-72
2022/06/13 03:43:49;;;;;;;8.80;5.97;;;;;;;16.30;76.28;100047.45;2173842;80;21036;-73
2022/06/13 03:47:07;;;;;;;10.17;6.77;;;;;;;16.31;76.18;100040.24;2168519;80;20973;-73
2022/06/13 03:50:32;;;;;;;10.25;5.83;;;;;;;16.30;76.32;100038.58;2167680;81;21018;-73
2022/06/13 03:53:48;;;;;;;11.25;7.00;;;;;;;16.30;76.34;100026.53;2168869;80;21524;-74
2022/06/13 03:56:58;;;;;;;11.38;6.60;;;;;;;16.31;76.42;100025.00;2175641;80;21690;-73
2022/06/13 04:00:11;;;;;;;8.60;6.60;;;;;;;16.36;76.56;100017.17;2179921;80;21072;-73
2022/06/13 04:03:13;;;;;;;9.48;6.40;;;;;;;16.34;76.52;100006.36;2175787;80;21071;-74
2022/06/13 04:06:41;;;;;;;8.25;7.08;;;;;;;16.37;76.57;100017.99;2173415;80;21045;-73
2022/06/13 04:09:53;;;;;;;10.35;6.80;;;;;;;16.40;76.72;100024.27;2174400;81;21002;-74
2022/06/13 04:13:26;;;;;;;9.93;6.35;;;;;;;16.30;76.64;100019.34;2172659;80;21666;-74
2022/06/13 04:17:01;;;;;;;8.15;6.15;;;;;;;16.32;76.70;100033.84;2169578;80;21508;-73
2022/06/13 04:20:29;;;;;;;12.90;6.25;;;;;;;16.36;76.95;100049.30;2159247;80;21089;-73
2022/06/13 04:23:50;;;;;;;10.95;6.97;;;;;;;16.40;77.07;100055.06;2153682;81;21047;-74
2022/06/13 04:27:18;;;;;;;8.68;7.30;;;;;;;16.43;77.17;100060.52;2139723;81;20994;-73
2022/06/13 04:30:24;;;;;;;9.03;7.12;;;;;;;16.44;77.24;100074.20;2148158;81;20975;-73
2022/06/13 04:33:34;;;;;;;10.48;7.60;;;;;;;16.40;77.25;100073.80;2152840;81;21049;-73
2022/06/13 04:36:36;;;;;;;8.83;6.97;;;;;;;16.36;77.51;100033.23;2153152;81;21046;-73
2022/06/13 04:39:40;;;;;;;10.98;6.97;;;;;;;16.35;77.84;99949.91;2158997;81;21278;-73
2022/06/13 04:42:43;;;;;;;12.78;8.35;;;;;;;16.32;78.22;99951.66;2155001;81;21049;-74
2022/06/13 04:45:55;;;;;;;11.88;7.67;;;;;;;16.29;78.04;99975.36;2156258;81;21058;-75
2022/06/13 04:49:02;;;;;;;7.28;6.30;;;;;;;16.23;78.04;99968.98;2155867;81;21060;-74
2022/06/13 04:52:14;;;;;;;8.95;8.05;;;;;;;16.15;78.09;99977.22;2149333;81;21117;-75
2022/06/13 04:55:30;;;;;;;8.55;7.33;;;;;;;16.11;78.39;100002.77;2147908;81;21001;-74
2022/06/13 04:58:35;;;;;;;10.88;6.08;;;;;;;16.11;78.50;99992.06;2155820;81;21065;-74
2022/06/13 05:01:49;;;;;;;9.15;7.12;;;;;;;16.07;78.41;99983.59;2132514;81;21615;-74
2022/06/13 05:04:51;;;;;;;7.35;6.60;;;;;;;16.09;78.64;99966.83;2147345;81;20935;-74
2022/06/13 05:07:54;;;;;;;12.15;7.03;;;;;;;16.13;78.73;99958.70;2153814;81;21054;-74
2022/06/13 05:11:22;;;;;;;10.78;7.15;;;;;;;16.20;78.91;99959.21;2159930;81;21532;-75
2022/06/13 05:14:46;;;;;;;8.85;6.85;;;;;;;16.26;79.19;99959.72;2155522;81;20998;-74
2022/06/13 05:18:13;;;;;;;11.85;7.22;;;;;;;16.32;79.24;99966.39;2157196;81;21026;-74
2022/06/13 05:21:29;;;;;;;13.88;7.17;;;;;;;16.33;79.02;99957.84;2149412;81;21615;-75
2022/06/13 05:25:24;;;;;;;12.58;7.22;;;;;;;16.35;79.02;99966.49;2152702;81;20975;-74
2022/06/13 05:28:38;;;;;;;10.45;6.80;;;;;;;16.41;79.39;99980.91;2150732;81;21065;-73
2022/06/13 05:31:37;;;;;;;8.63;6.83;;;;;;;16.43;79.32;99978.33;2148944;81;21457;-73
2022/06/13 05:34:41;;;;;;;8.08;6.62;;;;;;;16.47;79.30;99988.09;2149338;81;20975;-73
2022/06/13 05:37:43;;;;;;;7.78;7.00;;;;;;;16.47;79.30;99999.66;2151408;82;20972;-74
2022/06/13 05:40:46;;;;;;;12.23;7.20;;;;;;;16.53;79.44;100013.55;2148882;81;21053;-74
2022/06/13 05:43:47;;;;;;;9.83;7.78;;;;;;;16.61;79.55;100019.19;2150940;81;21006;-74
2022/06/13 05:46:49;;;;;;;9.63;7.70;;;;;;;16.65;79.62;100014.25;2150009;81;21033;-74
2022/06/13 05:49:51;;;;;;;8.05;7.25;;;;;;;16.72;79.76;100030.60;2151339;81;20994;-74
2022/06/13 05:52:52;;;;;;;8.15;6.80;;;;;;;16.74;79.70;100029.89;2152779;81;20942;-73
2022/06/13 05:55:57;;;;;;;10.70;7.50;;;;;;;16.77;79.61;100021.98;2156433;81;21033;-74
2022/06/13 05:58:58;;;;;;;13.62;6.83;;;;;;;16.79;79.57;100030.64;2147490;81;21548;-73
2022/06/13 06:02:00;;;;;;;7.80;6.30;;;;;;;16.83;79.67;100030.52;2153853;81;20998;-74
2022/06/13 06:05:01;;;;;;;9.25;6.05;;;;;;;16.85;79.42;100015.06;2152950;81;20982;-73
2022/06/13 06:08:02;;;;;;;7.30;6.40;;;;;;;16.90;79.52;100006.41;2151498;81;21528;-73
2022/06/13 06:11:04;;;;;;;7.58;6.00;;;;;;;16.93;79.48;100012.16;2150825;81;21470;-73
2022/06/13 06:14:07;;;;;;;6.62;5.75;;;;;;;16.98;79.57;100011.01;2142794;82;21033;-73
2022/06/13 06:17:08;;;;;;;6.65;5.67;;;;;;;17.08;79.44;99999.02;2153457;81;21515;-74
2022/06/13 06:20:17;;;;;;;6.67;6.03;;;;;;;17.14;79.81;100001.66;2154612;81;21074;-73
2022/06/13 06:23:19;;;;;;;5.90;5.30;;;;;;;17.21;79.47;99992.27;2154969;81;21053;-73
2022/06/13 06:26:24;;;;;;;5.92;5.25;;;;;;;17.29;79.42;99981.79;2151518;82;21074;-74
2022/06/13 06:29:25;;;;;;;5.67;5.20;;;;;;;17.32;79.20;99982.20;2148755;81;21006;-74
2022/06/13 06:32:26;;;;;;;8.63;5.80;;;;;;;17.40;79.27;99976.59;2153352;81;21535;-74
2022/06/13 06:35:30;;;;;;;7.10;5.20;;;;;;;17.41;79.11;99964.00;2155887;81;21503;-74
2022/06/13 06:38:32;;;;;;;8.05;4.90;;;;;;;17.44;79.21;99960.89;2151209;81;21081;-74
2022/06/13 06:41:33;;;;;;;5.25;4.62;;;;;;;17.42;79.23;99953.05;2148268;81;20995;-74
2022/06/13 06:44:34;;;;;;;9.43;5.25;;;;;;;17.41;79.06;99956.77;2149405;81;21026;-75
2022/06/13 06:47:36;;;;;;;6.87;4.47;;;;;;;17.43;79.29;99962.75;2150879;81;20989;-75
2022/06/13 06:50:41;;;;;;;6.30;4.35;;;;;;;17.50;79.22;99973.95;2152178;81;21096;-75
2022/06/13 07:00:25;;;;;;;5.58;3.52;;;;;;;17.71;79.01;99991.06;2099336;83;21564;-74
2022/06/13 07:03:26;;;;;;;4.75;3.87;;;;;;;17.81;78.80;99987.92;2150368;81;21021;-74
2022/06/13 07:06:27;;;;;;;4.97;3.87;;;;;;;17.94;78.60;99988.36;2149745;81;21492;-75
2022/06/13 07:09:28;;;;;;;4.15;3.60;;;;;;;18.01;78.26;99981.06;2157290;81;21009;-75
2022/06/13 07:12:29;;;;;;;6.55;3.85;;;;;;;18.06;78.20;99964.59;2147095;81;21094;-74
2022/06/13 07:15:31;;;;;;;5.60;3.90;;;;;;;18.13;77.91;99965.88;2145230;81;21092;-74
2022/06/13 07:18:32;;;;;;;6.10;4.42;;;;;;;18.15;77.70;99956.56;2153660;81;20970;-74
2022/06/13 07:21:34;;;;;;;8.00;5.22;;;;;;;18.14;77.19;99944.72;2156603;81;21029;-74
2022/06/13 07:24:35;;;;;;;5.60;4.47;;;;;;;18.06;77.47;99949.02;2157384;81;21509;-74
2022/06/13 07:27:37;;;;;;;4.65;3.10;;;;;;;18.06;77.67;99950.36;2157563;81;21073;-73
2022/06/13 07:30:38;;;;;;;6.40;3.40;;;;;;;18.07;77.47;99942.07;2165089;81;21022;-74
2022/06/13 07:33:40;;;;;;;9.10;3.45;;;;;;;18.19;77.56;99948.06;2158970;81;21008;-75
2022/06/13 07:36:42;;;;;;;3.17;2.75;;;;;;;18.28;77.63;99950.78;2159939;81;21029;-74
2022/06/13 07:39:43;;;;;;;3.33;3.08;;;;;;;18.38;77.43;99950.55;2159594;81;20994;-74
2022/06/13 07:42:52;;;;;;;6.45;2.83;;;;;;;18.49;77.07;99954.91;2159059;81;20997;-75
2022/06/13 07:45:54;;;;;;;4.83;2.83;;;;;;;18.59;76.83;99963.28;2158743;81;21398;-75
2022/06/13 07:48:56;;;;;;;3.00;2.65;;;;;;;18.70;76.68;99958.52;2159403;81;21045;-74
2022/06/13 07:51:57;;;;;;;4.75;2.83;;;;;;;18.80;76.22;99956.13;2157046;81;21049;-75
2022/06/13 07:54:59;;;;;;;3.42;3.05;;;;;;;18.89;76.01;99962.55;2162202;81;21030;-75
2022/06/13 07:58:00;;;;;;;3.15;2.50;;;;;;;19.02;75.88;99957.84;2159127;81;20942;-75
2022/06/13 08:01:04;;;;;;;3.87;2.80;;;;;;;19.15;75.21;99962.24;2159638;81;21039;-75
2022/06/13 08:04:05;;;;;;;7.55;2.62;;;;;;;19.29;75.20;99955.32;2157526;81;21020;-75
2022/06/13 08:07:09;;;;;;;6.78;2.67;;;;;;;19.58;74.98;99954.50;2158991;81;21014;-75
2022/06/13 08:10:11;;;;;;;5.78;2.75;;;;;;;19.86;74.79;99951.20;2159603;81;21069;-74
2022/06/13 08:13:14;;;;;;;5.75;3.30;;;;;;;20.16;74.31;99953.00;2162745;81;21439;-77
2022/06/13 08:16:16;;;;;;;4.67;3.17;;;;;;;20.38;73.59;99961.30;2155085;81;21040;-75
2022/06/13 08:19:17;;;;;;;6.08;3.37;;;;;;;20.40;72.71;99959.73;2160488;81;21501;-77
2022/06/13 08:22:20;;;;;;;5.45;3.08;;;;;;;20.36;72.20;99958.85;2162082;81;21061;-76
2022/06/13 08:25:26;;;;;;;7.10;3.20;;;;;;;20.32;72.04;99962.23;2161731;81;20992;-76
2022/06/13 08:28:28;;;;;;;10.28;3.90;;;;;;;20.25;72.24;99964.25;2160166;81;22181;-76
2022/06/13 08:31:29;;;;;;;7.22;3.22;;;;;;;20.20;71.97;99954.70;2164327;81;20997;-76
2022/06/13 08:34:30;;;;;;;3.50;3.20;;;;;;;20.07;71.56;99959.23;2160706;81;21416;-75
2022/06/13 08:37:32;;;;;;;9.58;4.33;;;;;;;19.93;71.81;99955.13;2165103;81;21044;-76
2022/06/13 08:41:03;;;;;;;5.55;4.37;;;;;;;19.79;71.73;99961.77;2161628;81;21697;-76
2022/06/13 08:44:18;;;;;;;7.00;4.90;;;;;;;19.64;71.54;99969.73;2158916;81;21057;-75
2022/06/13 08:47:49;;;;;;;7.55;5.47;;;;;;;19.47;72.19;99963.36;2151713;81;20986;-76
2022/06/13 08:51:00;;;;;;;;;;;;;;;19.39;72.34;99966.37;2161097;81;21499;-75
2022/06/13 08:54:03;;;;;;;;;;;;;;;19.56;72.98;99972.74;2161979;81;20146;-75
2022/06/13 08:57:09;;;;;;;8.70;7.33;;;;;;;19.72;72.79;99975.34;2159242;81;21036;-75
2022/06/13 09:00:20;;;;;;;15.18;8.18;;;;;;;19.81;72.64;99983.38;2159838;81;20959;-76
2022/06/13 09:03:32;;;;;;;11.83;8.45;;;;;;;19.80;72.44;99998.43;2158972;81;20986;-75
2022/06/13 09:06:53;;;;;;;12.15;9.70;;;;;;;19.69;72.49;100002.19;2159616;81;21561;-75
2022/06/13 09:10:09;;;;;;;14.68;11.65;;;;;;;19.58;72.66;100000.78;2157237;81;21046;-75
2022/06/13 09:13:24;;;;;;;19.30;14.00;;;;;;;19.42;72.72;100007.08;2159081;81;21044;-75
2022/06/13 09:16:33;;;;;;;20.37;14.23;;;;;;;19.20;72.73;100005.42;2160144;81;21116;-75
2022/06/13 09:20:06;;;;;;;20.12;15.68;;;;;;;19.03;72.99;100020.50;2157642;81;21053;-75
2022/06/13 09:23:19;;;;;;;14.28;12.88;;;;;;;18.91;73.46;100023.12;2145703;81;21502;-75
2022/06/13 09:26:38;;;;;;;19.02;15.25;;;;;;;18.83;73.75;100027.97;2165568;81;21002;-75
2022/06/13 09:30:18;;;;;;;22.20;15.50;;;;;;;18.73;73.90;100029.28;2163928;81;21041;-75
2022/06/13 09:33:35;;;;;;;21.48;17.77;;;;;;;18.65;74.06;100040.31;2159738;81;21446;-75
2022/06/13 09:45:56;;;;;;;8.63;5.58;;;;;;;17.07;74.83;100105.94;2153525;81;21149;-74
2022/06/13 09:49:18;;;;;;;10.20;6.80;;;;;;;16.19;76.09;100112.31;2165686;81;21063;-74
2022/06/13 09:52:43;;;;;;;14.83;6.33;;;;;;;15.88;77.00;100116.84;2167795;81;21028;-75
2022/06/13 09:56:18;;;;;;;14.65;6.90;;;;;;;15.73;77.43;100128.23;2159590;81;21033;-74
2022/06/13 09:59:57;;;;;;;13.13;6.95;;;;;;;15.66;77.59;100129.00;2156557;81;21005;-74
2022/06/13 10:03:30;;;;;;;16.97;8.23;;;;;;;15.63;78.58;100138.77;2165277;81;21462;-74
2022/06/13 10:06:52;;;;;;;18.98;8.28;;;;;;;15.67;78.91;100140.52;2162318;81;21019;-74
2022/06/13 10:10:18;;;;;;;16.85;8.58;;;;;;;15.75;79.43;100152.94;2161684;81;20968;-74
2022/06/13 10:13:56;;;;;;;13.53;8.90;;;;;;;15.79;79.84;100160.86;2159207;81;20984;-74
2022/06/13 10:17:14;;;;;;;12.88;8.73;;;;;;;15.83;79.91;100156.27;2168611;81;20986;-74
2022/06/13 10:20:55;;;;;;;19.75;9.55;;;;;;;15.98;80.17;100159.30;2164935;81;21003;-74
2022/06/13 10:24:29;;;;;;;17.23;8.98;;;;;;;16.08;80.09;100158.41;2163302;81;21069;-74
2022/06/13 10:27:53;;;;;;;14.25;9.08;;;;;;;16.03;80.11;100160.34;2161592;81;21049;-75
2022/06/13 10:31:17;;;;;;;15.08;8.53;;;;;;;16.08;80.04;100165.92;2165050;81;21099;-74
2022/06/13 10:34:50;;;;;;;13.08;7.55;;;;;;;16.10;80.03;100156.34;2145371;81;21028;-74
2022/06/13 10:38:18;;;;;;;11.83;7.25;;;;;;;16.13;80.06;100164.81;2153737;81;21002;-74
2022/06/13 10:41:23;;;;;;;12.10;7.45;;;;;;;16.11;80.04;100150.80;2161265;81;21088;-74
2022/06/13 10:44:25;;;;;;;13.25;7.65;;;;;;;16.10;79.92;100148.30;2152473;81;21087;-75
2022/06/13 10:47:37;;;;;;;14.03;8.60;;;;;;;16.11;79.92;100136.07;2166086;81;21009;-74
2022/06/13 10:50:53;;;;;;;11.12;7.90;;;;;;;16.19;80.08;100132.88;2159595;81;21540;-75
2022/06/13 10:54:06;;;;;;;13.95;8.03;;;;;;;16.35;80.33;100127.96;2160670;81;20955;-74
2022/06/13 10:57:22;;;;;;;11.10;7.87;;;;;;;16.47;80.14;100132.22;2157296;81;21009;-74
2022/06/13 11:00:28;;;;;;;20.25;7.80;;;;;;;16.50;79.90;100131.81;2166467;81;21032;-75
2022/06/13 11:03:30;;;;;;;13.75;7.92;;;;;;;16.58;79.82;100128.08;2160099;81;21014;-75
2022/06/13 11:06:48;;;;;;;13.90;7.83;;;;;;;16.64;79.88;100133.98;2163313;81;21041;-75
2022/06/13 11:09:57;;;;;;;13.28;7.87;;;;;;;16.69;79.83;100132.83;2156851;81;21034;-74
2022/06/13 11:13:01;;;;;;;11.73;7.85;;;;;;;16.77;79.77;100132.65;2163394;81;21041;-74
2022/06/13 11:23:07;;;;;;;11.00;7.75;;;;;;;17.06;79.66;100127.05;2157530;81;21034;-72
2022/06/13 11:27:39;;;;;;;10.63;7.87;;;;;;;17.08;79.46;100133.86;2153279;81;21057;-73
2022/06/13 11:29:18;;;;;;;17.57;7.87;;;;;;;17.11;79.42;100139.32;2157425;81;21614;-74
2022/06/13 11:32:25;;;;;;;12.55;7.65;;;;;;;17.19;79.40;100135.90;2160110;81;21011;-74
2022/06/13 11:35:39;;;;;;;11.03;7.28;;;;;;;17.32;79.00;100129.70;2158276;81;21017;-73
2022/06/13 11:39:04;;;;;;;14.10;7.92;;;;;;;17.39;78.72;100130.48;2166624;81;21056;-73
2022/06/13 11:42:24;;;;;;;13.35;8.05;;;;;;;17.45;78.64;100126.95;2151366;81;21595;-73
2022/06/13 11:45:28;;;;;;;12.07;7.90;;;;;;;17.42;78.31;100134.61;2159460;81;21053;-74
2022/06/13 11:48:31;;;;;;;11.33;7.35;;;;;;;17.35;77.95;100136.50;2162027;81;21546;-73
2022/06/13 11:52:02;;;;;;;12.85;8.08;;;;;;;17.27;78.02;100134.04;2164002;81;20968;-73
2022/06/13 11:55:15;;;;;;;11.48;7.62;;;;;;;17.16;77.88;100136.84;2162640;81;21026;-73
2022/06/13 11:58:23;;;;;;;18.92;8.15;;;;;;;17.15;78.30;100140.05;2161109;81;20987;-73
2022/06/13 12:01:30;;;;;;;14.10;8.05;;;;;;;17.15;78.19;100138.70;2156453;81;21065;-73
2022/06/13 12:04:31;;;;;;;12.58;7.78;;;;;;;17.20;78.42;100135.37;2166337;81;20997;-74
2022/06/13 12:07:33;;;;;;;12.95;8.38;;;;;;;17.29;78.53;100139.50;2157550;81;20964;-73
2022/06/13 12:10:46;;;;;;;12.37;8.65;;;;;;;17.42;78.71;100132.73;2162281;81;20979;-73
2022/06/13 12:13:48;;;;;;;11.22;8.28;;;;;;;17.64;78.96;100130.61;2162448;81;21541;-74
2022/06/13 12:17:04;;;;;;;11.38;7.58;;;;;;;17.82;78.58;100127.27;2164920;81;21351;-73
2022/06/13 12:20:11;;;;;;;13.03;7.30;;;;;;;18.03;78.50;100130.67;2166114;81;21003;-73
2022/06/13 12:23:18;;;;;;;12.80;7.85;;;;;;;18.24;78.25;100133.52;2167659;81;20941;-73
2022/06/13 12:26:34;;;;;;;12.98;7.25;;;;;;;18.46;77.85;100142.06;2148065;80;21049;-73
2022/06/13 12:30:32;;;;;;;9.93;6.72;;;;;;;18.57;76.88;100140.02;2162709;81;21540;-73
2022/06/13 12:34:24;;;;;;;10.72;6.50;;;;;;;18.68;76.45;100131.23;2165207;81;21330;-74
2022/06/13 12:37:54;;;;;;;9.88;6.35;;;;;;;18.89;76.48;100129.22;2160437;81;21042;-73
2022/06/13 12:41:06;;;;;;;11.57;6.33;;;;;;;19.09;75.61;100125.00;2144926;81;21034;-73
2022/06/13 12:44:19;;;;;;;12.85;6.28;;;;;;;19.04;74.92;100137.78;2161552;81;21046;-72
2022/06/13 12:47:44;;;;;;;10.80;5.95;;;;;;;19.09;75.06;100146.51;2136424;81;20980;-73
2022/06/13 12:51:19;;;;;;;12.03;6.22;;;;;;;19.13;74.91;100153.92;2158009;81;23024;-74
2022/06/13 12:54:53;;;;;;;9.60;5.35;;;;;;;19.00;73.85;100156.20;2165112;81;21068;-74
2022/06/13 12:58:18;;;;;;;12.40;5.58;;;;;;;18.93;73.71;100161.36;2153929;81;20966;-74
2022/06/13 13:01:25;;;;;;;13.50;5.28;;;;;;;18.85;73.41;100160.30;2161371;81;21029;-73
2022/06/13 13:04:51;;;;;;;7.80;5.53;;;;;;;18.84;73.89;100162.66;2157125;81;21533;-74
2022/06/13 13:08:28;;;;;;;13.20;6.65;;;;;;;18.84;73.87;100156.78;2160963;81;21086;-74
2022/06/13 13:11:53;;;;;;;9.13;5.20;;;;;;;18.86;73.47;100147.14;2158383;81;21403;-74
2022/06/13 13:15:19;;;;;;;11.68;5.20;;;;;;;18.80;73.36;100142.13;2156364;81;21417;-73
2022/06/13 13:18:45;;;;;;;9.28;5.45;;;;;;;18.79;72.97;100139.14;2162943;81;21516;-73
2022/06/13 13:22:08;;;;;;;12.60;5.17;;;;;;;18.77;72.72;100138.01;2158964;81;21085;-73
2022/06/13 13:25:43;;;;;;;11.75;5.00;;;;;;;18.72;72.49;100143.19;2153290;81;21587;-74
2022/06/13 13:29:10;;;;;;;12.60;5.60;;;;;;;18.67;72.52;100142.20;2149128;81;21002;-74
2022/06/13 13:32:29;;;;;;;12.98;5.55;;;;;;;18.59;72.71;100144.66;2152511;81;21026;-74
2022/06/13 13:36:06;;;;;;;11.05;6.28;;;;;;;18.59;72.92;100144.66;2148598;81;21018;-73
2022/06/13 13:39:24;;;;;;;7.72;5.33;;;;;;;18.57;73.07;100146.20;2122933;83;21543;-72
2022/06/13 13:42:51;;;;;;;9.78;5.35;;;;;;;18.52;73.05;100142.52;2154151;81;21010;-73
2022/06/13 13:46:18;;;;;;;9.95;5.90;;;;;;;18.54;73.04;100141.27;2148191;81;21077;-73
2022/06/13 13:49:46;;;;;;;10.78;5.95;;;;;;;18.60;73.31;100132.86;2148839;81;21121;-73
2022/06/13 13:53:00;;;;;;;7.70;5.35;;;;;;;18.74;73.75;100129.05;2149031;81;21018;-73
2022/06/13 13:56:24;;;;;;;8.25;4.42;;;;;;;19.00;73.32;100134.69;2150238;81;21048;-73
2022/06/13 13:59:30;;;;;;;7.40;4.03;;;;;;;19.19;72.48;100130.17;2152797;81;21018;-74
2022/06/13 14:02:51;;;;;;;9.60;4.08;;;;;;;19.34;71.60;100110.97;2147516;81;22193;-74
2022/06/13 14:06:12;;;;;;;;;;;;;;;19.49;71.21;100110.61;2160394;81;21080;-74
2022/06/13 14:09:20;;;;;;;9.15;4.42;;;;;;;19.72;70.84;100111.81;2148540;81;20499;-74
2022/06/13 14:12:23;;;;;;;9.35;4.83;;;;;;;19.95;70.65;100114.59;2155798;81;21029;-75
2022/06/13 14:15:53;;;;;;;9.63;4.60;;;;;;;20.09;70.02;100114.70;2146613;82;21006;-74
2022/06/13 14:19:17;;;;;;;7.63;4.73;;;;;;;20.27;69.30;100107.59;2126706;82;21022;-74
2022/06/13 14:22:22;;;;;;;10.53;4.87;;;;;;;20.33;68.26;100121.52;2155120;81;21018;-73
2022/06/13 14:25:39;;;;;;;10.48;4.03;;;;;;;20.31;67.90;100108.80;2150310;81;21046;-73
2022/06/13 14:28:53;;;;;;;6.97;4.17;;;;;;;20.28;67.69;100100.64;2147726;81;21017;-73
2022/06/13 14:32:12;;;;;;;9.60;4.60;;;;;;;20.25;67.49;100098.41;2151494;81;21445;-73
2022/06/13 14:35:52;;;;;;;7.20;4.35;;;;;;;20.23;67.35;100094.30;2154234;81;21033;-74
2022/06/13 14:39:02;;;;;;;10.28;4.25;;;;;;;20.19;67.22;100101.19;2148316;81;21086;-74
2022/06/13 14:42:21;;;;;;;7.72;4.55;;;;;;;20.20;67.44;100094.77;2144304;81;21578;-73
2022/06/13 14:45:53;;;;;;;9.48;4.25;;;;;;;20.22;66.98;100096.72;2151786;81;21038;-73
2022/06/13 14:49:18;;;;;;;9.03;4.17;;;;;;;20.26;67.19;100097.35;2151780;81;21053;-73
2022/06/13 14:52:29;;;;;;;11.10;4.42;;;;;;;20.42;67.08;100098.56;2148448;81;21041;-74
2022/06/13 14:55:32;;;;;;;5.53;3.90;;;;;;;20.53;66.91;100092.41;2150159;81;20998;-74
2022/06/13 14:58:52;;;;;;;9.53;4.10;;;;;;;20.61;66.10;100095.29;2150003;80;21466;-74
2022/06/13 15:02:17;;;;;;;8.93;3.70;;;;;;;20.63;65.60;100095.85;2154275;81;21018;-74
2022/06/13 15:05:27;;;;;;;7.28;3.85;;;;;;;20.44;65.19;100100.52;2155672;81;21423;-75
2022/06/13 15:08:52;;;;;;;13.13;3.87;;;;;;;20.30;65.36;100101.74;2153009;81;21010;-75
2022/06/13 15:12:00;;;;;;;7.50;4.15;;;;;;;20.17;65.60;100100.63;2151219;81;21054;-75
2022/06/13 15:15:08;;;;;;;8.28;4.25;;;;;;;20.14;65.51;100096.52;2147482;81;21470;-75
2022/06/13 15:18:22;;;;;;;7.72;3.87;;;;;;;20.15;65.94;100107.57;2145802;82;21054;-76
2022/06/13 15:21:31;;;;;;;8.18;4.85;;;;;;;20.21;66.13;100107.99;2150046;81;21513;-75
2022/06/13 15:24:50;;;;;;;6.65;3.92;;;;;;;20.25;65.74;100112.41;2156457;81;20994;-75